Time;durP1;ratioP1;P1;durP2;ratioP2;P2;SDS_P1;SDS_P2;PMS_P1;PMS_P2;Temp;Humidity;BMP_temperature;BMP_pressure;BME280_temperature;BME280_humidity;BME280_pressure;Samples;Min_cycle;Max_cycle;Signal;HPM_P1;HPM_P2
2022/09/22 00:00:42;;;;;;;1.93;1.53;;;;;;;12.45;62.43;101081.63;5070739;28;20735;-78
2022/09/22 00:03:08;;;;;;;1.90;1.50;;;;;;;12.40;62.16;101079.66;5070292;28;20400;-79
2022/09/22 00:05:33;;;;;;;2.13;1.40;;;;;;;12.41;62.24;101089.44;5070786;28;20863;-78
2022/09/22 00:08:00;;;;;;;1.90;1.50;;;;;;;12.42;61.76;101082.09;5070693;28;20474;-78
2022/09/22 00:10:27;;;;;;;2.05;1.33;;;;;;;12.41;62.04;101081.28;5070783;28;20528;-78
2022/09/22 00:12:53;;;;;;;1.65;1.50;;;;;;;12.41;62.06;101075.03;5070361;28;20398;-78
2022/09/22 00:15:19;;;;;;;2.00;1.40;;;;;;;12.40;62.15;101079.66;5067695;28;20427;-78
2022/09/22 00:17:44;;;;;;;3.08;1.60;;;;;;;12.40;61.96;101084.25;5063979;28;20456;-78
2022/09/22 00:20:12;;;;;;;2.23;1.40;;;;;;;12.36;61.92;101081.19;5069798;28;20399;-79
2022/09/22 00:22:38;;;;;;;1.48;1.40;;;;;;;12.27;62.16;101079.09;5070461;28;20878;-79
2022/09/22 00:25:04;;;;;;;1.30;1.03;;;;;;;12.25;61.89;101073.88;5073765;28;20395;-79
2022/09/22 00:27:29;;;;;;;1.40;1.30;;;;;;;12.23;61.92;101064.34;5074103;28;20930;-78
2022/09/22 00:29:54;;;;;;;1.50;1.27;;;;;;;12.18;62.24;101073.22;5056198;28;20490;-78
2022/09/22 00:32:20;;;;;;;1.52;1.50;;;;;;;12.14;62.41;101061.19;5073804;28;20850;-78
2022/09/22 00:34:45;;;;;;;1.80;1.50;;;;;;;12.11;62.60;101069.81;5074099;28;20443;-78
2022/09/22 00:37:11;;;;;;;1.83;1.63;;;;;;;12.10;62.58;101070.03;5073894;28;20406;-78
2022/09/22 00:39:36;;;;;;;2.53;1.70;;;;;;;12.10;62.75;101070.03;5073988;28;20396;-78
2022/09/22 00:42:02;;;;;;;3.40;1.60;;;;;;;12.05;62.76;101067.22;5073894;28;20384;-78
2022/09/22 00:44:40;;;;;;;2.42;1.42;;;;;;;11.98;62.81;101066.53;5073263;28;20403;-78
2022/09/22 00:47:44;;;;;;;1.67;1.40;;;;;;;11.93;63.02;101064.53;5073838;28;20391;-78
2022/09/22 00:50:12;;;;;;;2.25;1.58;;;;;;;11.88;63.23;101064.44;5018007;28;20392;-78
2022/09/22 00:52:49;;;;;;;2.97;1.50;;;;;;;11.91;63.18;101062.06;5074089;28;20403;-78
2022/09/22 00:55:28;;;;;;;5.57;1.38;;;;;;;11.95;62.96;101059.69;5073551;28;20415;-78
2022/09/22 00:57:55;;;;;;;3.80;2.13;;;;;;;11.96;63.08;101064.03;5073373;28;20917;-78
2022/09/22 01:00:20;;;;;;;5.20;2.08;;;;;;;11.94;63.17;101058.03;5055804;28;20464;-78
2022/09/22 01:02:49;;;;;;;2.47;2.00;;;;;;;11.93;63.30;101059.09;5073449;28;20483;-79
2022/09/22 01:05:16;;;;;;;4.35;2.42;;;;;;;11.93;63.24;101059.91;5066616;28;20392;-78
2022/09/22 01:07:42;;;;;;;5.25;1.92;;;;;;;11.93;63.10;101056.38;5073015;28;20396;-78
2022/09/22 01:10:08;;;;;;;1.98;1.88;;;;;;;11.93;63.46;101062.63;5073347;28;20731;-78
2022/09/22 01:12:35;;;;;;;6.33;2.60;;;;;;;11.93;63.28;101059.09;5073280;28;20391;-78
2022/09/22 01:15:18;;;;;;;2.33;2.10;;;;;;;11.91;63.62;101059.34;5072949;28;20437;-78
2022/09/22 01:17:53;;;;;;;3.17;1.95;;;;;;;11.90;63.58;101070.44;5072764;28;20475;-78
2022/09/22 01:20:22;;;;;;;4.90;2.30;;;;;;;11.89;63.17;101066.88;5073068;28;20400;-78
2022/09/22 01:23:09;;;;;;;6.45;2.50;;;;;;;11.86;63.27;101059.22;5073207;28;20380;-78
2022/09/22 01:25:50;;;;;;;4.10;2.13;;;;;;;11.82;63.19;101060.75;5072679;28;20388;-78
2022/09/22 01:28:40;;;;;;;4.30;2.37;;;;;;;11.76;63.28;101071.75;5072885;28;20754;-78
2022/09/22 01:31:24;;;;;;;3.00;2.15;;;;;;;11.71;63.64;101068.94;5072886;28;20400;-78
2022/09/22 01:34:05;;;;;;;2.35;1.88;;;;;;;11.66;63.91;101066.06;5072879;28;20478;-78
2022/09/22 01:36:41;;;;;;;3.60;1.77;;;;;;;11.58;63.96;101056.41;5072708;28;20475;-78
2022/09/22 01:39:26;;;;;;;2.77;1.80;;;;;;;11.50;64.06;101062.16;5072444;28;20742;-78
2022/09/22 01:41:57;;;;;;;3.88;1.80;;;;;;;11.46;64.00;101069.97;5072684;28;20867;-78
2022/09/22 01:44:32;;;;;;;4.55;1.63;;;;;;;11.43;64.14;101062.28;5072711;28;20400;-78
2022/09/22 01:47:06;;;;;;;3.37;1.70;;;;;;;11.39;64.16;101057.59;5072222;28;20449;-78
2022/09/22 01:49:34;;;;;;;4.93;1.65;;;;;;;11.36;64.42;101060.78;5072612;28;20392;-78
2022/09/22 01:52:06;;;;;;;5.03;1.52;;;;;;;11.31;64.40;101060.63;5072444;28;20410;-78
2022/09/22 01:54:44;;;;;;;2.70;1.40;;;;;;;11.28;64.42;101064.66;5072426;28;20411;-78
2022/09/22 01:57:19;;;;;;;3.85;1.70;;;;;;;11.24;64.43;101058.03;5072561;28;20383;-78
2022/09/22 01:59:52;;;;;;;2.38;1.58;;;;;;;11.24;64.42;101054.50;5072456;28;20376;-78
2022/09/22 02:02:31;;;;;;;2.42;1.60;;;;;;;11.26;64.42;101053.19;5072323;28;20399;-78
2022/09/22 02:05:01;;;;;;;2.13;1.60;;;;;;;11.26;64.55;101061.31;5071994;28;20376;-78
2022/09/22 02:07:32;;;;;;;1.45;1.35;;;;;;;11.26;64.75;101049.69;5072254;28;20498;-78
2022/09/22 02:10:01;;;;;;;2.00;1.53;;;;;;;11.26;64.60;101050.47;5072209;28;20777;-78
2022/09/22 02:12:26;;;;;;;5.72;1.55;;;;;;;11.24;64.65;101047.19;5072147;28;20388;-78
2022/09/22 02:14:52;;;;;;;2.67;1.73;;;;;;;11.19;64.79;101044.34;5071515;28;20420;-78
2022/09/22 02:17:18;;;;;;;2.70;1.80;;;;;;;11.14;64.70;101049.66;5072018;28;20399;-78
2022/09/22 02:19:43;;;;;;;2.08;1.85;;;;;;;11.10;64.74;101051.16;5067309;28;20417;-78
2022/09/22 02:22:10;;;;;;;1.93;1.77;;;;;;;11.09;65.00;101046.00;5071893;28;20399;-78
2022/09/22 02:24:43;;;;;;;2.22;1.77;;;;;;;11.08;64.99;101047.03;5071485;28;20395;-78
2022/09/22 02:27:24;;;;;;;2.30;1.80;;;;;;;11.09;65.05;101040.56;5071715;28;20436;-78
2022/09/22 02:29:55;;;;;;;2.15;1.70;;;;;;;11.05;65.21;101042.09;5072099;28;20399;-78
2022/09/22 02:32:22;;;;;;;4.05;1.98;;;;;;;11.01;65.25;101038.19;5071407;28;20395;-78
2022/09/22 02:34:47;;;;;;;2.93;1.93;;;;;;;11.00;65.32;101036.56;5071686;28;20587;-78
2022/09/22 02:37:41;;;;;;;4.73;2.00;;;;;;;11.02;65.50;101035.25;5071568;28;20388;-78
2022/09/22 02:40:14;;;;;;;2.07;1.97;;;;;;;10.99;65.79;101038.44;5071206;28;20418;-78
2022/09/22 02:42:54;;;;;;;3.88;2.28;;;;;;;10.97;65.89;101031.56;5071605;28;20388;-78
2022/09/22 02:45:28;;;;;;;2.90;2.50;;;;;;;10.92;66.14;101029.56;5071115;28;20380;-78
2022/09/22 02:48:14;;;;;;;3.60;2.20;;;;;;;10.90;66.00;101023.53;5071530;28;20387;-78
2022/09/22 02:50:41;;;;;;;2.20;2.00;;;;;;;10.95;66.28;101031.81;5071472;28;20391;-78
2022/09/22 02:53:12;;;;;;;3.90;2.20;;;;;;;10.91;66.18;101027.91;5071451;28;20428;-78
2022/09/22 02:55:38;;;;;;;2.78;1.90;;;;;;;10.92;66.28;101029.56;5071296;28;20406;-78
2022/09/22 02:58:03;;;;;;;2.90;2.47;;;;;;;10.86;66.27;101025.09;5070999;28;20388;-78
2022/09/22 03:00:28;;;;;;;6.93;2.00;;;;;;;10.88;66.41;101031.09;5071364;28;20415;-78
2022/09/22 03:02:53;;;;;;;4.37;2.70;;;;;;;10.90;66.37;101029.78;5071312;28;20391;-78
2022/09/22 03:05:19;;;;;;;4.47;2.97;;;;;;;10.91;66.59;101025.19;5053358;28;20387;-78
2022/09/22 03:07:44;;;;;;;3.90;2.20;;;;;;;10.93;66.13;101025.81;5070951;28;20437;-78
2022/09/22 03:10:10;;;;;;;2.53;2.03;;;;;;;10.96;66.30;101027.22;5071228;28;20453;-78
2022/09/22 03:12:41;;;;;;;3.97;2.35;;;;;;;10.96;66.50;101025.34;5071125;28;20391;-78
2022/09/22 03:15:10;;;;;;;2.70;2.50;;;;;;;10.92;66.51;101021.44;5070954;28;20421;-78
2022/09/22 03:17:36;;;;;;;3.50;2.30;;;;;;;10.91;66.46;101019.78;5070779;28;20466;-78
2022/09/22 03:20:03;;;;;;;3.10;2.20;;;;;;;10.86;66.65;101022.38;5071097;28;20392;-78
2022/09/22 03:22:28;;;;;;;2.42;2.22;;;;;;;10.81;66.66;101031.19;5071065;28;20423;-78
2022/09/22 03:24:53;;;;;;;2.58;2.47;;;;;;;10.81;66.63;101028.50;5071092;28;20419;-78
2022/09/22 03:27:18;;;;;;;2.33;2.20;;;;;;;10.81;66.42;101022.22;5070654;28;20384;-78
2022/09/22 03:29:44;;;;;;;2.40;2.20;;;;;;;10.79;66.54;101024.38;5071104;28;20413;-78
2022/09/22 03:32:09;;;;;;;3.93;3.00;;;;;;;10.74;66.49;101022.34;5071208;28;20388;-78
2022/09/22 03:34:34;;;;;;;6.40;2.90;;;;;;;10.72;66.47;101020.94;5068254;28;20411;-78
2022/09/22 03:36:59;;;;;;;2.78;2.20;;;;;;;10.67;66.84;101024.31;5064546;28;20400;-78
2022/09/22 03:39:25;;;;;;;3.27;2.70;;;;;;;10.62;66.77;101023.38;5070133;28;20453;-78
2022/09/22 03:41:50;;;;;;;2.77;2.10;;;;;;;10.56;66.86;101022.41;5069207;28;20435;-79
2022/09/22 03:44:16;;;;;;;2.77;2.10;;;;;;;10.59;67.32;101023.84;5070731;28;20445;-78
2022/09/22 03:46:41;;;;;;;5.10;2.50;;;;;;;10.60;66.93;101023.63;5070823;28;20858;-79
2022/09/22 03:49:07;;;;;;;4.53;2.78;;;;;;;10.62;67.07;101016.06;5065711;28;20406;-79
2022/09/22 03:51:33;;;;;;;3.20;2.20;;;;;;;10.59;67.25;101023.84;5070861;28;20393;-78
2022/09/22 03:53:58;;;;;;;2.73;2.47;;;;;;;10.57;67.33;101020.53;5070721;28;20467;-78
2022/09/22 03:56:24;;;;;;;5.80;2.30;;;;;;;10.56;67.08;101016.16;5070766;28;20478;-78
2022/09/22 03:58:49;;;;;;;2.50;2.03;;;;;;;10.53;66.63;101022.88;5074275;28;20419;-78
2022/09/22 04:01:14;;;;;;;3.83;2.50;;;;;;;10.50;66.74;101025.22;5074615;28;20858;-79
2022/09/22 04:03:39;;;;;;;4.27;2.40;;;;;;;10.49;66.90;101020.84;5072425;28;20384;-79
2022/09/22 04:06:05;;;;;;;2.63;2.20;;;;;;;10.46;66.95;101024.84;5061765;28;20484;-79
2022/09/22 04:08:31;;;;;;;2.95;2.65;;;;;;;10.44;67.05;101021.53;5051161;28;20420;-79
2022/09/22 04:10:59;;;;;;;2.57;2.37;;;;;;;10.40;66.84;101017.66;5060894;28;20445;-79
2022/09/22 04:13:25;;;;;;;4.05;2.67;;;;;;;10.38;67.04;101012.44;5072097;28;20436;-79
2022/09/22 04:15:51;;;;;;;4.10;2.20;;;;;;;10.36;67.15;101008.31;5060945;28;20447;-79
2022/09/22 04:18:16;;;;;;;6.20;2.57;;;;;;;10.33;67.00;101004.19;5064041;28;20449;-79
2022/09/22 04:20:43;;;;;;;2.60;2.40;;;;;;;10.36;67.24;101005.63;5073948;28;20387;-78
2022/09/22 04:23:10;;;;;;;2.67;2.28;;;;;;;10.30;67.08;101001.97;5073965;28;20388;-80
2022/09/22 04:25:35;;;;;;;2.75;2.55;;;;;;;10.27;67.39;101009.72;5064465;28;20400;-81
2022/09/22 04:28:02;;;;;;;2.70;2.50;;;;;;;10.26;67.06;101002.63;5068753;28;20391;-79
2022/09/22 04:30:27;;;;;;;5.00;2.30;;;;;;;10.27;67.13;101005.09;5072825;28;20434;-78
2022/09/22 04:32:52;;;;;;;5.03;2.27;;;;;;;10.28;67.09;101006.75;5055853;28;20431;-78
2022/09/22 04:35:17;;;;;;;2.70;2.50;;;;;;;10.29;67.14;101010.28;5072371;28;20415;-78
2022/09/22 04:37:43;;;;;;;4.00;2.40;;;;;;;10.25;67.37;101011.81;5073813;28;20387;-78
2022/09/22 04:40:10;;;;;;;3.00;2.30;;;;;;;10.23;67.72;101009.34;5073471;28;20388;-79
2022/09/22 04:42:36;;;;;;;2.53;2.33;;;;;;;10.19;67.48;101008.13;5067374;28;20408;-76
2022/09/22 04:45:01;;;;;;;3.33;2.28;;;;;;;10.19;67.80;101005.44;5062843;28;20388;-78
2022/09/22 04:47:29;;;;;;;5.00;2.60;;;;;;;10.19;67.70;101010.00;5072076;28;20464;-80
2022/09/22 04:49:55;;;;;;;3.47;2.50;;;;;;;10.19;67.83;101010.00;5066292;28;20467;-81
2022/09/22 04:52:21;;;;;;;3.77;2.60;;;;;;;10.20;67.94;101001.69;5041421;28;21119;-79
2022/09/22 04:54:46;;;;;;;4.00;2.97;;;;;;;10.19;67.64;101001.88;5034566;28;20422;-78
2022/09/22 04:57:11;;;;;;;3.00;2.50;;;;;;;10.20;67.69;101009.81;5037423;28;20422;-78
2022/09/22 04:59:36;;;;;;;2.50;2.40;;;;;;;10.21;67.95;101008.72;5038990;28;20439;-78
2022/09/22 05:02:02;;;;;;;3.77;2.67;;;;;;;10.17;67.69;101007.56;5039017;28;20772;-78
2022/09/22 05:04:28;;;;;;;3.00;2.37;;;;;;;10.08;68.17;101011.56;5014734;28;20496;-78
2022/09/22 05:06:54;;;;;;;4.20;3.10;;;;;;;10.08;68.15;101005.31;5033011;28;20409;-78
2022/09/22 05:09:19;;;;;;;2.72;2.45;;;;;;;10.07;68.26;101006.41;5036330;28;20413;-78
2022/09/22 05:11:47;;;;;;;3.00;2.75;;;;;;;10.09;68.11;101018.66;5033224;28;20418;-78
2022/09/22 05:14:14;;;;;;;2.40;2.10;;;;;;;10.13;68.28;101013.63;5033209;28;20416;-78
2022/09/22 05:16:40;;;;;;;4.40;2.42;;;;;;;10.13;68.06;101014.44;5041981;28;20485;-78
2022/09/22 05:19:06;;;;;;;6.37;2.60;;;;;;;10.18;68.21;101017.31;5058272;28;20408;-78
2022/09/22 05:21:31;;;;;;;2.77;2.40;;;;;;;10.17;67.69;101015.69;5037134;28;20419;-78
2022/09/22 05:23:56;;;;;;;3.00;2.80;;;;;;;10.16;68.25;101024.84;5029392;28;21016;-78
2022/09/22 05:26:21;;;;;;;3.40;2.73;;;;;;;10.14;68.34;101021.53;5033568;28;21509;-78
2022/09/22 05:28:50;;;;;;;2.70;2.30;;;;;;;10.15;68.20;101027.78;5032853;28;20500;-78
2022/09/22 05:31:15;;;;;;;3.47;2.45;;;;;;;10.16;68.06;101032.16;5033149;28;20846;-77
2022/09/22 05:33:40;;;;;;;4.13;2.77;;;;;;;10.15;68.19;101036.72;5030956;28;20417;-78
2022/09/22 05:36:06;;;;;;;5.63;2.80;;;;;;;10.14;67.88;101029.66;5031299;28;20432;-79
2022/09/22 05:38:31;;;;;;;8.50;3.47;;;;;;;10.15;67.93;101035.91;5042322;28;21440;-79
2022/09/22 05:40:56;;;;;;;6.20;4.00;;;;;;;10.14;68.21;101029.66;5027519;28;20976;-78
2022/09/22 05:43:22;;;;;;;7.33;3.00;;;;;;;10.17;68.23;101031.94;5033568;28;20428;-78
2022/09/22 05:45:47;;;;;;;4.53;2.95;;;;;;;10.18;67.96;101033.56;5029178;28;20454;-78
2022/09/22 05:48:12;;;;;;;5.70;2.97;;;;;;;10.24;67.77;101034.56;5030886;28;20415;-78
2022/09/22 05:50:37;;;;;;;3.27;2.97;;;;;;;10.21;68.03;101034.97;5030801;28;20533;-78
2022/09/22 05:53:06;;;;;;;3.33;3.03;;;;;;;10.15;68.15;101035.91;5030548;28;20410;-78
2022/09/22 05:55:32;;;;;;;4.97;2.80;;;;;;;10.20;68.24;101028.75;5035861;28;20438;-78
2022/09/22 05:57:58;;;;;;;3.17;2.88;;;;;;;10.24;68.08;101031.84;5029893;28;20893;-78
2022/09/22 06:00:24;;;;;;;3.08;2.83;;;;;;;10.29;68.14;101031.97;5029886;28;20759;-78
2022/09/22 06:02:49;;;;;;;2.90;2.70;;;;;;;10.32;68.18;101026.91;5014806;28;20433;-78
2022/09/22 06:05:14;;;;;;;3.57;2.90;;;;;;;10.35;67.45;101031.03;5028302;28;21076;-78
2022/09/22 06:07:40;;;;;;;4.17;3.27;;;;;;;10.36;67.67;101028.13;5028398;28;20411;-79
2022/09/22 06:10:06;;;;;;;3.37;2.60;;;;;;;10.38;67.54;101033.28;5031100;28;21160;-78
2022/09/22 06:12:31;;;;;;;3.08;2.63;;;;;;;10.49;67.26;101028.97;5042332;28;20486;-78
2022/09/22 06:14:56;;;;;;;4.50;2.90;;;;;;;10.59;67.22;101032.78;5034462;28;20562;-78
2022/09/22 06:17:22;;;;;;;4.13;3.00;;;;;;;10.66;66.81;101040.81;5032954;28;20414;-79
2022/09/22 06:19:49;;;;;;;4.30;3.10;;;;;;;10.73;66.46;101030.72;5030061;28;20790;-80
2022/09/22 06:22:14;;;;;;;4.15;2.70;;;;;;;10.79;66.20;101035.22;5032711;28;20406;-79
2022/09/22 06:24:39;;;;;;;5.53;3.00;;;;;;;10.91;66.04;101031.47;5015789;28;20415;-79
2022/09/22 06:27:05;;;;;;;4.33;2.40;;;;;;;11.09;65.58;101044.13;5030311;28;20417;-79
2022/09/22 06:29:30;;;;;;;5.50;2.63;;;;;;;11.15;65.18;101036.91;5032144;28;20419;-79
2022/09/22 06:31:56;;;;;;;5.13;3.77;;;;;;;11.15;64.94;101036.91;5029686;28;20430;-80
2022/09/22 06:34:22;;;;;;;2.97;2.57;;;;;;;10.99;65.61;101032.19;5029262;28;20431;-79
2022/09/22 06:36:48;;;;;;;6.43;3.05;;;;;;;10.85;66.14;101037.81;5030857;28;20930;-78
2022/09/22 06:39:13;;;;;;;4.70;2.47;;;;;;;10.84;66.51;101027.19;5029622;28;20409;-79
2022/09/22 06:41:39;;;;;;;3.47;3.15;;;;;;;10.87;66.32;101030.25;5031609;28;20414;-79
2022/09/22 06:44:05;;;;;;;4.00;2.85;;;;;;;10.92;66.27;101029.56;5029082;28;20448;-79
2022/09/22 06:46:32;;;;;;;3.65;2.80;;;;;;;10.92;66.41;101033.13;5029863;28;20421;-79
2022/09/22 06:48:59;;;;;;;3.67;2.90;;;;;;;10.90;66.57;101034.38;5034147;28;20886;-79
2022/09/22 06:51:31;;;;;;;4.50;2.63;;;;;;;10.87;66.89;101029.44;5028780;28;20452;-78
2022/09/22 06:54:02;;;;;;;4.70;2.80;;;;;;;10.90;66.60;101034.38;5045049;28;20981;-78
2022/09/22 06:56:32;;;;;;;4.60;3.15;;;;;;;10.93;66.76;101032.03;5045393;28;20407;-78
2022/09/22 06:58:57;;;;;;;3.30;3.00;;;;;;;10.99;66.83;101035.72;5028640;28;20415;-79
2022/09/22 07:01:23;;;;;;;3.33;2.67;;;;;;;11.39;65.80;101030.44;5029686;28;20430;-78
2022/09/22 07:03:48;;;;;;;5.13;2.83;;;;;;;11.81;64.20;101028.44;5029056;28;21038;-79
2022/09/22 07:06:17;;;;;;;4.40;2.88;;;;;;;12.19;62.67;101030.56;5027894;28;20413;-78
2022/09/22 07:08:44;;;;;;;3.33;2.90;;;;;;;12.14;62.55;101028.56;5030445;28;20405;-78
2022/09/22 07:11:10;;;;;;;6.40;2.97;;;;;;;12.50;61.56;101019.22;5029091;28;20978;-80
2022/09/22 07:13:39;;;;;;;6.68;2.95;;;;;;;12.14;62.67;101014.16;5028028;28;20431;-79
2022/09/22 07:16:10;;;;;;;4.57;3.38;;;;;;;11.92;63.36;101024.88;5046050;28;20429;-78
2022/09/22 07:18:41;;;;;;;3.67;3.25;;;;;;;11.81;64.01;101021.09;5027912;28;20483;-78
2022/09/22 07:21:10;;;;;;;5.47;3.00;;;;;;;11.71;64.75;101020.06;5031567;28;20488;-78
2022/09/22 07:23:36;;;;;;;4.07;3.30;;;;;;;11.61;65.44;101014.38;5030962;28;20770;-78
2022/09/22 07:26:05;;;;;;;3.17;2.90;;;;;;;11.57;65.47;101016.72;5030427;28;20407;-79
2022/09/22 07:28:32;;;;;;;3.63;2.70;;;;;;;11.53;65.74;101014.72;5032759;28;20422;-79
2022/09/22 07:31:04;;;;;;;3.63;2.90;;;;;;;11.55;65.93;101005.31;5032645;28;20424;-80
2022/09/22 07:33:33;;;;;;;3.20;2.35;;;;;;;11.63;65.68;101010.34;5031946;28;20425;-80
2022/09/22 07:36:00;;;;;;;3.53;3.13;;;;;;;11.72;65.43;101008.13;5033450;28;20422;-81
2022/09/22 07:38:35;;;;;;;3.50;2.78;;;;;;;11.77;65.30;101016.38;5045427;28;20416;-79
2022/09/22 07:41:03;;;;;;;4.43;2.58;;;;;;;11.80;65.17;101010.47;5034256;28;20415;-79
2022/09/22 07:43:30;;;;;;;5.65;2.67;;;;;;;11.85;65.29;101008.72;5034924;28;20467;-79
2022/09/22 07:45:58;;;;;;;3.72;2.30;;;;;;;11.89;64.92;101006.31;5015582;28;20414;-78
2022/09/22 07:48:41;;;;;;;3.90;2.60;;;;;;;11.94;64.97;101007.25;5033672;28;20417;-78
2022/09/22 07:51:10;;;;;;;4.68;2.78;;;;;;;12.04;64.65;101009.34;5033617;28;20453;-78
2022/09/22 07:53:38;;;;;;;5.80;2.42;;;;;;;12.06;64.73;101012.66;5033343;28;20502;-78
2022/09/22 07:56:05;;;;;;;2.80;2.50;;;;;;;12.06;64.80;101004.50;5034689;28;20930;-79
2022/09/22 07:58:32;;;;;;;2.90;2.60;;;;;;;12.10;64.43;101007.56;5031865;28;20543;-78
2022/09/22 08:01:04;;;;;;;4.80;2.05;;;;;;;12.15;64.35;101003.03;5035577;28;20479;-79
2022/09/22 08:03:29;;;;;;;3.40;2.08;;;;;;;12.18;64.27;101007.19;5016424;28;20871;-78
2022/09/22 08:06:01;;;;;;;4.53;2.13;;;;;;;12.24;64.04;101003.50;5015365;28;20444;-78
2022/09/22 08:08:28;;;;;;;2.83;2.53;;;;;;;12.28;63.94;101004.66;5048695;28;20758;-79
2022/09/22 08:10:54;;;;;;;3.35;2.38;;;;;;;12.30;63.98;101002.53;5031110;28;20409;-79
2022/09/22 08:13:20;;;;;;;5.68;2.47;;;;;;;12.37;63.87;101004.03;5035077;28;20412;-79
2022/09/22 08:15:46;;;;;;;3.40;1.85;;;;;;;12.42;63.74;101000.56;5015879;28;20521;-79
2022/09/22 08:18:13;;;;;;;2.30;2.20;;;;;;;12.48;63.42;101000.41;5013684;28;20419;-79
2022/09/22 08:20:41;;;;;;;3.60;2.30;;;;;;;12.52;63.14;100999.91;5031016;28;20407;-79
2022/09/22 08:23:07;;;;;;;3.65;2.58;;;;;;;12.58;63.22;100996.25;5031919;28;20409;-78
2022/09/22 08:25:33;;;;;;;3.33;2.40;;;;;;;12.63;63.00;100999.88;5031361;28;20411;-78
2022/09/22 08:28:00;;;;;;;3.67;2.15;;;;;;;12.68;63.18;100991.78;5019504;28;20409;-79
2022/09/22 08:30:25;;;;;;;2.90;2.10;;;;;;;12.72;62.87;100990.25;5015373;28;20435;-79
2022/09/22 08:32:50;;;;;;;2.23;2.03;;;;;;;12.77;62.90;100981.34;5030707;28;20539;-78
2022/09/22 08:35:16;;;;;;;3.63;1.98;;;;;;;12.85;63.15;100989.09;5046081;28;20424;-78
2022/09/22 08:37:42;;;;;;;2.10;1.90;;;;;;;12.94;62.90;100987.63;5032826;28;20421;-78
2022/09/22 08:40:22;;;;;;;3.15;1.92;;;;;;;13.00;62.79;100983.91;5044876;28;20409;-79
2022/09/22 08:42:48;;;;;;;3.07;1.90;;;;;;;12.99;63.13;100979.53;5027896;28;20411;-79
2022/09/22 08:45:31;;;;;;;5.05;2.17;;;;;;;13.04;63.00;100987.75;5030127;28;20419;-79
2022/09/22 08:53:42;;;;;;;5.05;1.67;;;;;;;13.18;62.55;100991.84;5031020;28;20408;-79
2022/09/22 08:56:28;;;;;;;3.22;1.60;;;;;;;13.22;62.15;100986.72;5029943;28;21064;-78
2022/09/22 08:59:08;;;;;;;2.35;1.50;;;;;;;13.29;61.96;100987.38;5032311;28;20431;-78
2022/09/22 09:01:39;;;;;;;2.35;1.35;;;;;;;13.33;61.77;100992.06;5034427;28;20986;-79
2022/09/22 09:04:35;;;;;;;1.60;1.50;;;;;;;13.43;61.22;100984.06;5047495;28;20543;-79
2022/09/22 09:07:12;;;;;;;1.33;1.23;;;;;;;13.47;61.21;100979.72;5032980;28;21443;-79
2022/09/22 09:09:52;;;;;;;1.55;1.30;;;;;;;13.57;60.95;100972.81;5031702;28;20419;-79
2022/09/22 09:12:49;;;;;;;2.08;1.50;;;;;;;13.65;60.70;100975.06;5031048;28;20409;-78
2022/09/22 09:15:25;;;;;;;2.85;1.55;;;;;;;13.74;60.80;100982.56;5004293;28;20512;-79
2022/09/22 09:17:55;;;;;;;1.90;1.40;;;;;;;13.85;60.42;100983.50;5031859;28;20417;-79
2022/09/22 09:20:37;;;;;;;3.00;1.52;;;;;;;13.91;59.89;100983.31;5028874;28;20765;-78
2022/09/22 09:23:12;;;;;;;3.73;1.87;;;;;;;13.98;60.00;100975.78;5032405;28;20996;-77
2022/09/22 09:25:40;;;;;;;1.85;1.30;;;;;;;14.09;59.84;100975.91;5030643;28;20414;-78
2022/09/22 09:28:12;;;;;;;1.10;1.10;;;;;;;14.19;59.88;100982.28;5029734;28;20444;-78
2022/09/22 09:30:44;;;;;;;2.80;1.15;;;;;;;14.31;59.75;100973.94;5030702;28;20413;-79
2022/09/22 09:33:48;;;;;;;1.60;1.50;;;;;;;14.52;59.40;100976.63;5018871;28;20418;-78
2022/09/22 09:36:17;;;;;;;2.15;1.50;;;;;;;14.87;58.39;100972.59;5034774;28;20565;-78
2022/09/22 09:38:50;;;;;;;5.05;1.38;;;;;;;15.29;57.08;100981.63;5030058;28;20875;-79
2022/09/22 09:41:20;;;;;;;1.70;1.30;;;;;;;15.65;55.78;100977.22;5030022;28;20403;-78
2022/09/22 09:43:47;;;;;;;1.35;1.08;;;;;;;16.06;54.97;100965.38;5031758;28;20449;-78
2022/09/22 09:46:47;;;;;;;1.55;1.00;;;;;;;16.71;54.10;100976.75;5029420;28;20418;-79
2022/09/22 09:49:15;;;;;;;4.00;1.40;;;;;;;18.42;49.99;100970.78;5036863;28;21165;-79
2022/09/22 09:51:47;;;;;;;2.42;1.10;;;;;;;19.75;46.24;100972.09;5038282;28;20490;-77
2022/09/22 09:54:14;;;;;;;1.27;1.17;;;;;;;20.86;43.15;100962.28;5031975;28;20402;-78
2022/09/22 09:57:04;;;;;;;1.23;1.23;;;;;;;22.03;40.85;100970.00;5037924;28;20441;-79
2022/09/22 10:02:21;;;;;;;2.50;1.05;;;;;;;23.88;37.01;100969.53;5033344;28;20603;-79
2022/09/22 10:04:59;;;;;;;1.77;1.27;;;;;;;24.61;35.63;100968.69;5020151;28;20857;-79
2022/09/22 10:07:38;;;;;;;3.75;1.40;;;;;;;24.99;34.28;100957.78;5030080;28;20471;-78
2022/09/22 10:10:30;;;;;;;1.20;1.00;;;;;;;25.59;33.40;100952.84;5025548;28;20413;-79
2022/09/22 10:12:59;;;;;;;1.58;1.17;;;;;;;26.13;32.27;100959.44;5028366;28;20401;-79
2022/09/22 10:15:25;;;;;;;3.25;0.90;;;;;;;26.35;31.06;100955.53;5017010;28;21452;-79
2022/09/22 10:17:51;;;;;;;1.85;0.90;;;;;;;26.35;30.21;100949.16;5023328;28;20426;-79
2022/09/22 10:20:21;;;;;;;1.10;1.00;;;;;;;26.51;30.03;100942.66;5026618;28;20402;-77
2022/09/22 10:22:47;;;;;;;1.73;1.30;;;;;;;27.00;29.41;100940.09;5029165;28;20501;-77
2022/09/22 10:25:30;;;;;;;2.15;0.75;;;;;;;27.57;29.53;100945.66;5031150;28;20810;-76
2022/09/22 10:28:08;;;;;;;1.00;0.90;;;;;;;27.83;28.80;100932.22;5026076;28;20885;-77
2022/09/22 10:30:38;;;;;;;1.20;1.10;;;;;;;28.23;28.64;100940.66;5026845;28;20533;-78
2022/09/22 10:33:21;;;;;;;0.90;0.80;;;;;;;28.75;27.79;100935.84;5026964;28;20434;-78
2022/09/22 10:36:04;;;;;;;0.95;0.85;;;;;;;28.89;27.74;100932.66;5029443;28;20432;-78
2022/09/22 10:38:33;;;;;;;2.47;0.73;;;;;;;29.11;27.44;100920.91;5029677;28;20416;-78
2022/09/22 10:41:06;;;;;;;2.00;0.70;;;;;;;28.77;27.77;100925.19;5027178;28;20518;-75
2022/09/22 10:43:50;;;;;;;1.00;0.90;;;;;;;27.95;27.87;100918.28;5026883;28;20468;-76
2022/09/22 10:46:22;;;;;;;2.35;0.93;;;;;;;27.18;28.51;100916.50;5028854;28;20920;-74
2022/09/22 10:49:03;;;;;;;2.35;0.88;;;;;;;27.20;29.13;100920.53;5026627;28;20446;-78
2022/09/22 10:51:55;;;;;;;0.70;0.70;;;;;;;27.54;28.80;100910.16;5027414;28;21399;-77
2022/09/22 10:54:57;;;;;;;0.40;0.38;;;;;;;27.31;28.63;100920.91;5027763;28;21471;-77
2022/09/22 10:57:44;;;;;;;1.10;0.40;;;;;;;27.87;27.93;100907.25;5026365;28;20429;-78
2022/09/22 11:00:12;;;;;;;0.47;0.47;;;;;;;28.45;26.99;100908.66;5013420;28;20496;-75
2022/09/22 11:02:56;;;;;;;0.68;0.68;;;;;;;28.71;26.97;100909.88;5028076;28;21017;-78
2022/09/22 11:12:16;;;;;;;2.87;0.77;;;;;;;28.93;26.34;100908.47;4994405;28;20496;-75
2022/09/22 11:14:57;;;;;;;1.45;0.50;;;;;;;28.97;26.15;100902.97;5028988;28;20646;-74
2022/09/22 11:17:52;;;;;;;1.70;0.80;;;;;;;28.34;26.39;100909.16;5030635;28;21325;-75
2022/09/22 11:20:35;;;;;;;1.20;0.60;;;;;;;28.12;27.11;100906.91;5031496;28;20456;-75
2022/09/22 11:23:18;;;;;;;0.82;0.50;;;;;;;28.40;26.39;100901.34;5029282;28;20518;-75
2022/09/22 11:26:21;;;;;;;1.77;0.60;;;;;;;27.96;27.18;100891.25;5027862;28;20411;-75
2022/09/22 11:29:51;;;;;;;1.50;0.68;;;;;;;27.34;28.19;100893.22;5027453;28;21068;-75
2022/09/22 11:32:35;;;;;;;0.73;0.73;;;;;;;27.23;28.69;100894.03;5032496;28;20450;-75
2022/09/22 11:35:38;;;;;;;5.65;0.85;;;;;;;27.30;29.00;100880.31;5027637;28;20425;-75
2022/09/22 11:38:30;;;;;;;3.60;0.63;;;;;;;27.89;27.83;100879.88;5030574;28;20522;-74
2022/09/22 11:41:24;;;;;;;1.70;1.00;;;;;;;28.75;26.76;100882.88;5028347;28;20446;-74
2022/09/22 11:44:17;;;;;;;4.80;0.80;;;;;;;29.08;25.95;100884.56;5028964;28;20402;-77
2022/09/22 11:47:08;;;;;;;0.70;0.70;;;;;;;28.57;26.75;100891.88;5027568;28;20479;-74
2022/09/22 11:49:53;;;;;;;5.50;0.70;;;;;;;28.96;26.28;100874.25;5027757;28;20420;-74
2022/09/22 11:52:49;;;;;;;3.58;2.15;;;;;;;29.60;24.83;100873.94;5029667;28;20922;-74
2022/09/22 11:56:05;;;;;;;1.15;0.70;;;;;;;30.52;24.31;100867.63;5026241;28;20438;-74
2022/09/22 11:58:32;;;;;;;1.30;1.10;;;;;;;30.81;23.64;100866.16;4989810;28;20454;-74